To NAV CANADA Home Page Login to a new session Search on AWWS site Feedback and Comments Disclaimer Vers la page française équivalente Tips FAQ What's new on the site To the Forecasts and Observations / NOTAM section To "File a Flight Plan" website Publications and other links Update of the User's profile FIC Telephone Numbers My Weather Data Folder Route Weather Data Regional Weather Data Local Weather Data To the Forecasts and Observations / NOTAM section
Request Generated 04/19/2014 at 19:57:38 UTC . Weather information available at that time is displayed.

METAR/TAF

REPULSE BAY/NU    

METAR CYUT 191900Z 12003KT 25SM FEW140 BKN250 M07/M10 A2995 RMK
AC1CI6 AC TR SLP145=
METAR CYUT 191800Z 18006KT 160V250 45SM FEW140 BKN250 M07/M11 A2994
RMK AC1CI7 AC TR SLP142=
METAR CYUT 191700Z 17002KT 45SM SCT140 BKN250 M09/M13 A2994 RMK
AC4CI2 SLP140=

TAF CYUT 191538Z 1916/1920 30005KT P6SM BKN140
RMK NXT FCST WILL BE ISSUED AT 201545Z=
Your time UTC time
Weather data provided by Environment Canada and NAV CANADA